.
WxDataArchive / Data Records for 2014-06-19
2014-06-18 June 2014 2014-06-20

Data Records for Thursday, 19 June 2014

Time	Temp	Chill	HIndex	Humid	Dewpt	 Wind 	HiWind	WindDir	Rain 	Barom
-----	----	-----	------	-----	-----	------	------	-------	-----	-----
00:00	71.6	71.6	71.6	94	69.8	0	0	---	0.00	29.935 
00:05	71.6	71.6	71.6	94	69.8	0	0	---	0.00	29.935 
00:10	71.5	71.5	71.5	94	69.7	0	1	270	0.00	29.935 
00:15	71.5	71.5	71.5	94	69.7	0	1	270	0.00	29.927 
00:20	71.3	71.3	71.3	94	69.5	0	2	270	0.00	29.927 
00:25	71.1	71.1	71.1	94	69.3	0	0	---	0.01	29.927 
00:30	70.9	70.9	70.9	94	69.1	0	0	---	0.00	29.941 
00:35	70.9	70.9	70.9	94	69.1	0	0	---	0.00	29.941 
00:40	70.8	70.8	70.8	94	69.0	0	0	---	0.00	29.941 
00:45	70.8	70.8	70.8	94	69.0	0	0	---	0.00	29.934 
00:50	70.6	70.6	70.6	94	68.8	0	0	---	0.00	29.934 
00:55	70.4	70.4	70.4	94	68.6	0	0	---	0.00	29.934 
01:00	70.3	70.3	70.3	94	68.5	0	0	---	0.00	29.924 
01:05	70.3	70.3	70.3	94	68.5	0	2	270	0.00	29.924 
01:10	70.1	70.1	70.1	94	68.3	0	0	---	0.00	29.924 
01:15	69.9	69.9	69.9	94	68.1	0	0	---	0.00	29.928 
01:20	69.8	69.8	69.8	94	68.0	0	0	---	0.00	29.928 
01:25	69.6	69.6	69.6	94	67.8	0	0	---	0.00	29.928 
01:30	69.6	69.6	69.6	94	67.8	0	0	---	0.00	29.941 
01:35	69.6	69.6	69.6	94	67.8	0	0	---	0.00	29.941 
01:40	69.6	69.6	69.6	94	67.8	0	0	---	0.00	29.941 
01:45	69.6	69.6	69.6	95	68.1	0	0	---	0.00	29.943 
01:50	69.6	69.6	69.6	95	68.1	0	0	---	0.00	29.943 
01:55	69.6	69.6	69.6	95	68.1	0	0	---	0.00	29.943 
02:00	69.8	69.8	69.8	95	68.3	0	0	---	0.00	29.951 
02:05	69.8	69.8	69.8	95	68.3	0	0	---	0.00	29.951 
02:10	69.8	69.8	69.8	95	68.3	0	0	---	0.00	29.951 
02:15	69.8	69.8	69.8	95	68.3	0	0	---	0.00	29.954 
02:20	69.8	69.8	69.8	95	68.3	0	0	---	0.00	29.954 
02:25	69.8	69.8	69.8	95	68.3	0	0	---	0.00	29.954 
02:30	69.8	69.8	69.8	95	68.3	0	0	---	0.00	29.954 
02:35	69.8	69.8	69.8	95	68.3	0	0	---	0.00	29.954 
02:40	69.8	69.8	69.8	95	68.3	0	0	---	0.00	29.954 
02:45	69.9	69.9	69.9	95	68.4	0	0	---	0.00	29.952 
02:50	69.9	69.9	69.9	95	68.4	0	0	---	0.00	29.952 
02:55	69.9	69.9	69.9	95	68.4	0	0	---	0.00	29.952 
03:00	69.9	69.9	69.9	95	68.4	0	0	---	0.00	29.954 
03:05	69.9	69.9	69.9	95	68.4	0	0	---	0.00	29.954 
03:10	69.9	69.9	69.9	95	68.4	0	0	---	0.00	29.954 
03:15	69.8	69.8	69.8	95	68.3	0	0	---	0.00	29.948 
03:20	69.8	69.8	69.8	95	68.3	0	0	---	0.00	29.948 
03:25	69.8	69.8	69.8	95	68.3	0	0	---	0.00	29.948 
03:30	69.6	69.6	69.6	95	68.1	0	0	---	0.00	29.952 
03:35	69.6	69.6	69.6	95	68.1	0	0	---	0.00	29.952 
03:40	69.6	69.6	69.6	95	68.1	0	0	---	0.00	29.952 
03:45	69.4	69.4	69.4	95	67.9	0	0	---	0.00	29.944 
03:50	69.4	69.4	69.4	95	67.9	0	0	---	0.00	29.944 
03:55	69.4	69.4	69.4	95	67.9	0	0	---	0.00	29.944 
04:00	69.3	69.3	69.3	95	67.8	0	0	---	0.00	29.938 
04:05	69.3	69.3	69.3	95	67.8	0	0	---	0.00	29.938 
04:10	69.3	69.3	69.3	95	67.8	0	0	---	0.00	29.938 
04:15	69.4	69.4	69.4	95	67.9	0	0	---	0.00	29.956 
04:20	69.4	69.4	69.4	95	67.9	0	0	---	0.00	29.956 
04:25	69.3	69.3	69.3	95	67.8	0	0	---	0.00	29.956 
04:30	69.3	69.3	69.3	95	67.8	0	0	---	0.00	29.969 
04:35	69.4	69.4	69.4	95	67.9	0	0	---	0.00	29.969 
04:40	69.4	69.4	69.4	95	67.9	0	0	---	0.00	29.969 
04:45	69.4	69.4	69.4	96	68.2	0	1	270	0.00	29.983 
04:50	69.4	69.4	69.4	96	68.2	0	1	270	0.00	29.983 
04:55	69.4	69.4	69.4	96	68.2	0	0	---	0.00	29.983 
05:00	69.4	69.4	69.4	96	68.2	0	0	---	0.00	29.990 
05:05	69.4	69.4	69.4	96	68.2	0	0	---	0.00	29.990 
05:10	69.4	69.4	69.4	96	68.2	0	0	---	0.00	29.990 
05:15	69.4	69.4	69.4	96	68.2	0	0	---	0.00	30.004 
05:20	69.4	69.4	69.4	96	68.2	0	0	---	0.00	30.004 
05:25	69.3	69.3	69.3	96	68.1	0	0	---	0.00	30.004 
05:30	69.3	69.3	69.3	96	68.1	0	0	---	0.00	30.002 
05:35	69.3	69.3	69.3	96	68.1	0	0	---	0.00	30.002 
05:40	69.3	69.3	69.3	96	68.1	0	0	---	0.00	30.002 
05:45	69.3	69.3	69.3	96	68.1	0	0	---	0.00	30.002 
05:50	69.1	69.1	69.1	96	67.9	0	0	---	0.00	30.002 
05:55	69.1	69.1	69.1	96	67.9	0	0	---	0.00	30.002 
06:00	69.1	69.1	69.1	96	67.9	0	1	270	0.00	30.002 
06:05	69.1	69.1	69.1	96	67.9	0	0	---	0.00	30.002 
06:10	68.9	68.9	68.9	96	67.7	0	1	270	0.00	30.002 
06:15	68.8	68.8	68.8	96	67.6	0	0	---	0.00	30.013 
06:20	68.8	68.8	68.8	96	67.6	0	2	270	0.00	30.013 
06:25	68.8	68.8	68.8	96	67.6	0	2	270	0.00	30.013 
06:30	68.8	68.8	68.8	96	67.6	0	1	270	0.00	30.004 
06:35	68.8	68.8	68.8	96	67.6	0	0	---	0.00	30.004 
06:40	68.8	68.8	68.8	96	67.6	0	1	270	0.00	30.004 
06:45	68.6	68.6	68.6	96	67.4	0	2	270	0.00	30.010 
06:50	68.6	68.6	68.6	96	67.4	0	0	---	0.00	30.010 
06:55	68.6	68.6	68.6	96	67.4	0	1	270	0.00	30.010 
07:00	68.6	68.6	68.6	96	67.4	0	1	270	0.00	30.012 
07:05	68.8	68.8	68.8	96	67.6	0	0	---	0.00	30.012 
07:10	68.8	68.8	68.8	96	67.6	0	1	270	0.00	30.012 
07:15	68.8	68.8	68.8	96	67.6	0	1	270	0.00	30.017 
07:20	68.8	68.8	68.8	96	67.6	0	1	270	0.00	30.017 
07:25	68.8	68.8	68.8	96	67.6	0	0	---	0.00	30.017 
07:30	68.8	68.8	68.8	96	67.6	0	0	---	0.00	30.031 
07:35	68.8	68.8	68.8	96	67.6	0	0	---	0.00	30.031 
07:40	68.8	68.8	68.8	96	67.6	0	0	---	0.00	30.031 
07:45	68.8	68.8	68.8	96	67.6	0	0	---	0.00	30.043 
07:50	68.9	68.9	68.9	96	67.7	0	0	---	0.00	30.043 
07:55	68.9	68.9	68.9	96	67.7	0	0	---	0.00	30.043 
08:00	68.9	68.9	68.9	96	67.7	0	0	---	0.00	30.049 
08:05	68.9	68.9	68.9	96	67.7	0	0	---	0.00	30.049 
08:10	68.9	68.9	68.9	96	67.7	0	0	---	0.00	30.049 
08:15	68.9	68.9	68.9	96	67.7	0	0	---	0.00	30.051 
08:20	68.9	68.9	68.9	96	67.7	0	1	270	0.00	30.051 
08:25	69.1	69.1	69.1	96	67.9	0	1	270	0.00	30.051 
08:30	69.1	69.1	69.1	96	67.9	0	1	270	0.00	30.050 
08:35	69.1	69.1	69.1	96	67.9	0	2	270	0.00	30.050 
08:40	69.1	69.1	69.1	96	67.9	0	2	270	0.00	30.050 
08:45	69.1	69.1	69.1	96	67.9	0	3	270	0.00	30.051 
08:50	69.3	69.3	69.3	96	68.1	0	3	270	0.00	30.051 
08:55	69.3	69.3	69.3	95	67.8	0	2	270	0.00	30.051 
09:00	69.4	69.4	69.4	95	67.9	0	2	270	0.00	30.060 
09:05	69.6	69.6	69.6	95	68.1	0	4	270	0.00	30.060 
09:10	69.4	69.4	69.4	94	67.6	1	3	135	0.00	30.060 
09:15	69.8	69.8	69.8	94	68.0	1	4	135	0.00	30.060 
09:20	69.8	69.8	69.8	93	67.7	0	2	112	0.00	30.060 
09:25	69.8	69.8	69.8	93	67.7	1	3	112	0.00	30.060 
09:30	69.9	69.9	69.9	93	67.8	1	4	90	0.00	30.064 
09:35	70.3	70.3	70.3	93	68.2	1	4	68	0.00	30.064 
09:40	70.3	70.3	70.3	92	67.9	1	4	68	0.00	30.064 
09:45	70.4	70.4	70.4	91	67.6	1	3	112	0.00	30.068 
09:50	70.6	70.6	70.6	90	67.5	1	2	112	0.00	30.068 
09:55	70.8	70.8	70.8	90	67.7	2	5	90	0.00	30.068 
10:00	71.5	71.5	71.5	89	68.1	1	5	90	0.00	30.061 
10:05	71.8	71.8	71.8	88	68.0	1	5	68	0.00	30.061 
10:10	71.6	71.6	71.6	86	67.2	2	5	90	0.00	30.061 
10:15	71.8	71.8	71.8	85	67.0	3	5	90	0.00	30.059 
10:20	72.3	72.3	72.3	84	67.2	1	4	68	0.00	30.059 
10:25	73.0	73.0	73.0	84	67.9	0	4	68	0.00	30.059 
10:30	73.2	73.2	73.2	81	67.0	2	5	90	0.00	30.060 
10:35	73.3	73.3	73.3	81	67.1	1	5	90	0.00	30.060 
10:40	73.7	73.7	73.7	81	67.5	1	4	90	0.00	30.060 
10:45	73.9	73.9	73.9	80	67.3	1	3	90	0.00	30.063 
10:50	73.9	73.9	73.9	80	67.3	1	3	90	0.00	30.063 
10:55	73.9	73.9	73.9	81	67.7	1	4	90	0.00	30.063 
11:00	73.9	73.9	73.9	81	67.7	0	2	90	0.00	30.064 
11:05	74.0	74.0	74.0	80	67.4	0	4	90	0.00	30.064 
11:10	74.0	74.0	74.0	80	67.4	1	5	90	0.00	30.064 
11:15	74.2	74.2	74.2	80	67.6	1	4	90	0.00	30.060 
11:20	74.4	74.4	74.4	80	67.8	1	3	90	0.00	30.060 
11:25	74.6	74.6	74.6	80	68.0	1	4	90	0.00	30.060 
11:30	74.6	74.6	74.6	78	67.3	1	3	90	0.00	30.062 
11:35	74.6	74.6	74.6	78	67.3	1	6	90	0.00	30.062 
11:40	74.9	74.9	74.9	78	67.6	1	4	90	0.00	30.062 
11:45	75.1	75.1	76.0	78	67.8	1	3	90	0.00	30.064 
11:50	75.4	75.4	76.2	79	68.4	0	4	90	0.00	30.064 
11:55	75.6	75.6	76.8	76	67.5	1	3	90	0.00	30.064 
12:00	75.8	75.8	77.1	75	67.3	1	3	90	0.00	30.064 
12:05	76.1	76.1	77.5	75	67.6	1	3	90	0.00	30.064 
12:10	76.3	76.3	77.7	75	67.8	1	3	90	0.00	30.064 
12:15	76.3	76.3	77.8	74	67.4	1	3	90	0.00	30.061 
12:20	76.5	76.5	78.1	74	67.6	1	4	90	0.00	30.061 
12:25	76.7	76.7	78.3	73	67.4	0	2	90	0.00	30.061 
12:30	76.7	76.7	78.3	74	67.8	1	3	90	0.00	30.059 
12:35	76.8	76.8	78.5	73	67.5	0	2	90	0.00	30.059 
12:40	77.4	77.4	79.3	73	68.0	1	4	90	0.00	30.059 
12:45	78.1	78.1	80.2	70	67.5	1	4	90	0.00	30.057 
12:50	78.3	78.3	80.4	70	67.7	2	4	112	0.00	30.057 
12:55	77.9	77.9	79.9	70	67.3	2	5	90	0.00	30.057 
13:00	77.7	77.7	79.6	70	67.1	0	3	68	0.00	30.063 
13:05	77.9	77.9	79.9	70	67.3	1	4	68	0.00	30.063 
13:10	77.9	77.9	79.8	68	66.5	0	3	68	0.00	30.063 
13:15	78.3	78.3	80.3	67	66.4	2	5	68	0.00	30.072 
13:20	78.5	78.5	80.5	67	66.6	1	4	90	0.00	30.072 
13:25	78.6	78.6	80.7	67	66.7	1	5	90	0.00	30.072 
13:30	78.8	78.8	80.9	67	66.9	0	3	90	0.00	30.071 
13:35	79.4	79.4	81.9	69	68.3	1	3	90	0.00	30.071 
13:40	79.6	79.6	81.8	65	66.8	1	3	90	0.00	30.071 
13:45	79.4	79.4	81.6	65	66.6	1	3	90	0.00	30.072 
13:50	79.0	79.0	81.1	66	66.6	0	2	90	0.00	30.072 
13:55	78.6	78.6	80.7	67	66.7	0	3	90	0.00	30.072 
14:00	78.6	78.6	80.7	67	66.7	0	2	90	0.00	30.071 
14:05	79.0	79.0	81.3	68	67.5	1	5	90	0.00	30.071 
14:10	79.9	79.9	82.2	65	67.1	1	3	90	0.00	30.071 
14:15	80.5	80.5	82.8	63	66.7	1	2	90	0.00	30.057 
14:20	80.5	80.5	82.9	64	67.2	1	3	90	0.00	30.057 
14:25	80.3	80.3	82.8	65	67.4	1	3	90	0.00	30.057 
14:30	80.7	80.7	83.4	65	67.8	1	3	90	0.00	30.053 
14:35	81.2	81.2	83.8	63	67.4	1	4	68	0.00	30.053 
14:40	81.2	81.2	83.5	61	66.4	2	6	90	0.00	30.053 
14:45	81.4	81.4	83.9	62	67.1	2	6	90	0.00	30.053 
14:50	81.4	81.4	83.9	62	67.1	2	5	90	0.00	30.053 
14:55	81.8	81.8	84.3	61	67.0	2	10	112	0.00	30.053 
15:00	81.4	81.4	83.6	60	66.2	2	10	90	0.00	30.038 
15:05	80.9	80.9	83.2	62	66.6	2	5	90	0.00	30.038 
15:10	80.9	80.9	83.2	62	66.6	2	7	90	0.00	30.038 
15:15	80.9	80.9	83.1	61	66.2	2	5	90	0.00	30.028 
15:20	81.1	81.1	83.3	61	66.4	3	9	90	0.00	30.028 
15:25	80.9	80.9	83.5	64	67.6	3	6	90	0.00	30.028 
15:30	80.9	80.9	83.5	64	67.6	2	6	90	0.00	30.027 
15:35	80.9	80.9	83.1	61	66.2	3	7	90	0.00	30.027 
15:40	80.5	80.5	82.9	64	67.2	3	6	90	0.00	30.027 
15:45	80.5	80.5	82.7	62	66.3	2	6	68	0.00	30.039 
15:50	81.1	81.1	83.8	64	67.7	1	3	90	0.00	30.039 
15:55	81.8	81.8	84.9	64	68.4	2	4	90	0.00	30.039 
16:00	81.2	81.2	83.6	62	66.9	3	11	112	0.00	30.037 
16:05	80.1	80.1	82.2	62	65.9	3	5	90	0.00	30.037 
16:10	79.9	79.9	82.0	63	66.2	2	6	90	0.00	30.037 
16:15	79.8	79.8	81.9	63	66.1	3	6	90	0.00	30.042 
16:20	79.6	79.6	81.7	64	66.3	1	4	90	0.00	30.042 
16:25	79.8	79.8	81.9	63	66.1	2	6	90	0.00	30.042 
16:30	79.6	79.6	81.8	65	66.8	3	7	112	0.00	30.041 
16:35	79.4	79.4	81.6	65	66.6	2	7	90	0.00	30.041 
16:40	79.6	79.6	81.7	64	66.3	3	11	90	0.00	30.041 
16:45	80.1	80.1	82.4	64	66.8	2	5	90	0.00	30.041 
16:50	80.3	80.3	82.8	65	67.4	2	6	90	0.00	30.041 
16:55	80.5	80.5	82.7	62	66.3	4	7	90	0.00	30.041 
17:00	80.7	80.7	83.4	65	67.8	2	5	68	0.00	30.034 
17:05	80.3	80.3	82.5	63	66.5	3	6	90	0.00	30.034 
17:10	79.8	79.8	82.0	64	66.5	2	9	90	0.00	30.034 
17:15	79.4	79.4	81.6	65	66.6	3	6	90	0.00	30.033 
17:20	79.2	79.2	81.4	66	66.8	3	6	90	0.00	30.033 
17:25	78.8	78.8	80.9	66	66.5	2	7	90	0.00	30.033 
17:30	78.5	78.5	80.4	65	65.7	3	10	68	0.00	30.031 
17:35	78.8	78.8	80.9	67	66.9	2	5	90	0.00	30.031 
17:40	79.4	79.4	81.6	65	66.6	2	7	90	0.00	30.031 
17:45	79.2	79.2	81.4	66	66.8	3	10	90	0.00	30.026 
17:50	78.3	78.3	80.3	68	66.8	3	6	90	0.00	30.026 
17:55	77.7	77.7	79.6	69	66.7	2	8	90	0.00	30.026 
18:00	77.6	77.6	79.5	68	66.2	3	9	90	0.00	30.028 
18:05	77.7	77.7	79.6	68	66.3	2	7	112	0.00	30.028 
18:10	77.9	77.9	79.8	68	66.5	2	7	135	0.00	30.028 
18:15	77.9	77.9	79.8	68	66.5	3	10	90	0.00	30.026 
18:20	77.9	77.9	79.8	68	66.5	3	10	68	0.00	30.026 
18:25	77.6	77.6	79.5	69	66.6	3	6	90	0.00	30.026 
18:30	77.4	77.4	79.2	68	66.0	2	6	68	0.00	30.033 
18:35	77.4	77.4	79.2	69	66.4	2	7	90	0.00	30.033 
18:40	77.4	77.4	79.2	69	66.4	2	6	90	0.00	30.033 
18:45	77.2	77.2	79.0	68	65.8	3	9	68	0.00	30.042 
18:50	77.2	77.2	79.0	68	65.8	2	5	68	0.00	30.042 
18:55	77.0	77.0	78.8	69	66.0	2	7	68	0.00	30.042 
19:00	76.7	76.7	78.5	68	65.3	2	5	90	0.00	30.045 
19:05	76.5	76.5	78.2	70	66.0	1	6	90	0.00	30.045 
19:10	76.3	76.3	78.0	69	65.4	2	5	112	0.00	30.045 
19:15	76.3	76.3	78.0	69	65.4	3	6	68	0.00	30.045 
19:20	76.0	76.0	77.7	69	65.1	3	6	90	0.00	30.045 
19:25	75.8	75.8	77.4	70	65.3	2	5	90	0.00	30.045 
19:30	75.6	75.6	77.2	70	65.1	2	4	68	0.00	30.050 
19:35	75.6	75.6	77.2	70	65.1	2	5	68	0.00	30.050 
19:40	75.4	75.4	77.1	70	64.9	2	5	90	0.00	30.050 
19:45	75.3	75.3	77.0	70	64.8	2	5	90	0.00	30.057 
19:50	75.3	75.3	76.9	71	65.2	1	4	90	0.00	30.057 
19:55	75.1	75.1	76.7	71	65.0	2	6	90	0.00	30.057 
20:00	74.9	74.9	74.9	71	64.8	2	4	90	0.00	30.047 
20:05	74.9	74.9	74.9	71	64.8	1	3	90	0.00	30.047 
20:10	74.7	74.7	74.7	71	64.7	2	4	68	0.00	30.047 
20:15	74.6	74.6	74.6	71	64.6	2	5	90	0.00	30.045 
20:20	74.4	74.4	74.4	71	64.4	2	6	45	0.00	30.045 
20:25	74.2	74.2	74.2	70	63.8	2	10	90	0.00	30.045 
20:30	74.2	74.2	74.2	71	64.2	1	3	90	0.00	30.045 
20:35	74.0	74.0	74.0	72	64.4	1	3	90	0.00	30.045 
20:40	73.9	73.9	73.9	72	64.3	2	7	90	0.00	30.045 
20:45	73.9	73.9	73.9	72	64.3	2	4	68	0.00	30.037 
20:50	73.7	73.7	73.7	73	64.5	1	5	68	0.00	30.037 
20:55	73.5	73.5	73.5	73	64.3	1	3	90	0.00	30.037 
21:00	73.3	73.3	73.3	73	64.1	1	3	90	0.00	30.037 
21:05	73.2	73.2	73.2	74	64.4	1	4	90	0.00	30.037 
21:10	73.0	73.0	73.0	74	64.2	1	4	90	0.00	30.037 
21:15	72.8	72.8	72.8	75	64.4	0	2	90	0.00	30.037 
21:20	72.7	72.7	72.7	75	64.3	1	3	90	0.00	30.037 
21:25	72.5	72.5	72.5	76	64.5	1	2	90	0.00	30.037 
21:30	72.3	72.3	72.3	77	64.7	0	2	90	0.00	30.039 
21:35	72.1	72.1	72.1	77	64.5	0	2	90	0.00	30.039 
21:40	72.1	72.1	72.1	78	64.8	0	2	90	0.00	30.039 
21:45	72.0	72.0	72.0	79	65.1	0	3	90	0.00	30.035 
21:50	71.8	71.8	71.8	79	64.9	0	1	90	0.00	30.035 
21:55	71.6	71.6	71.6	80	65.1	0	0	---	0.00	30.035 
22:00	71.5	71.5	71.5	80	65.0	0	2	90	0.00	30.046 
22:05	71.3	71.3	71.3	80	64.8	0	2	90	0.00	30.046 
22:10	71.3	71.3	71.3	80	64.8	0	1	90	0.00	30.046 
22:15	71.1	71.1	71.1	80	64.6	0	1	90	0.00	30.059 
22:20	71.1	71.1	71.1	80	64.6	0	0	---	0.00	30.059 
22:25	70.9	70.9	70.9	80	64.4	0	1	90	0.00	30.059 
22:30	70.9	70.9	70.9	80	64.4	0	1	90	0.00	30.066 
22:35	71.1	71.1	71.1	80	64.6	0	1	90	0.00	30.066 
22:40	71.1	71.1	71.1	79	64.2	0	3	90	0.00	30.066 
22:45	70.9	70.9	70.9	80	64.4	0	2	90	0.00	30.061 
22:50	70.9	70.9	70.9	79	64.1	1	3	90	0.00	30.061 
22:55	70.9	70.9	70.9	80	64.4	0	2	90	0.00	30.061 
23:00	70.8	70.8	70.8	80	64.3	1	2	90	0.00	30.058 
23:05	70.8	70.8	70.8	80	64.3	0	1	90	0.00	30.058 
23:10	70.6	70.6	70.6	81	64.5	0	1	90	0.00	30.058 
23:15	70.4	70.4	70.4	81	64.3	0	2	90	0.00	30.057 
23:20	70.3	70.3	70.3	81	64.2	0	3	90	0.00	30.057 
23:25	70.3	70.3	70.3	81	64.2	1	3	90	0.00	30.057 
23:30	70.1	70.1	70.1	81	64.0	0	2	90	0.00	30.059 
23:35	69.9	69.9	69.9	82	64.1	1	2	90	0.00	30.059 
23:40	69.8	69.8	69.8	81	63.7	1	3	90	0.00	30.059 
23:45	69.8	69.8	69.8	81	63.7	1	3	90	0.00	30.060 
23:50	69.9	69.9	69.9	81	63.8	1	3	90	0.00	30.060 
23:55	69.9	69.9	69.9	81	63.8	0	4	90	0.00	30.060 

CoCoRaHS
IN-AL-39
A2 Web Hosting
Creative Commons License
GoDaddy
search engine by freefind advanced

loaded 2018-11-17 00:26:13 • last modified 2010-11-18 10:43:29
Privacy PolicyDisclaimer
• wx.awcolley.com is powered by PmWiki v.2002016 •
• all content (unless otherwise noted) © 2018 A W Colley